• Join FlightAware (Why Join?)
  • Login
  • US Flag 
04:44PM EDT


 

Airport Tracker/Info


-or-


 

Live Flight TrackerFlight Track Log ✈ GJS3710 ✈ 21-May-2013 ✈ KSAT - KDEN

Flight Track Log - Related Links

Times and Time Zones

All times are in EDT time to prevent confusion due to time zone crossing. See the GJS3710 flight status page for this flight to view local times or setup timezone preferences in your user account.

Time Position Orientation Groundspeed Altitude Reporting Facility
EDT Latitude Longitude Course Direction KTS MPH feet Rate Location/Type
02:57PM 29.5225 -98.4617 120° Southeast 143 165 1,500  Level Houston Center
02:58PM 29.4969 -98.4117 120° Southeast 207 238 3,100 1,620 Climbing Houston Center
02:59PM 29.5094 -98.3892 57° Northeast 214 246 3,800 1,740 Climbing Houston Center
03:00PM 29.5811 -98.3772 North 267 307 5,600 2,040 Climbing Houston Center
03:01PM 29.6694 -98.3797 359° North 296 341 8,100 2,220 Climbing Houston Center
03:02PM 29.7556 -98.3825 358° North 308 354 10,300 1,800 Climbing Houston Center
03:03PM 29.8556 -98.3856 358° North 334 384 11,900 1,500 Climbing Houston Center
03:04PM 29.9578 -98.3889 358° North 365 420 13,500 1,680 Climbing Houston Center
03:05PM 30.0725 -98.3925 358° North 383 441 15,400 1,800 Climbing Houston Center
03:06PM 30.1728 -98.4325 341° North 394 453 17,300 1,740 Climbing Houston Center
03:07PM 30.2761 -98.4944 333° Northwest 370 426 19,100 1,800 Climbing Houston Center
03:08PM 30.3756 -98.5550 332° Northwest 390 449 21,100 1,680 Climbing Houston Center
03:09PM 30.4592 -98.6369 320° Northwest 388 447 22,700 1,500 Climbing Houston Center
03:10PM 30.5381 -98.7269 316° Northwest 393 452 24,200 1,380 Climbing Houston Center
03:11PM 30.6106 -98.8267 310° West 398 458 25,600 1,200 Climbing Houston Center
03:12PM 30.6803 -98.9258 309° West 393 452 26,800 1,140 Climbing Houston Center
03:13PM 30.7658 -99.0075 321° Northwest 407 468 28,000 540 Climbing Houston Center
03:14PM 30.8803 -99.0644 337° Northwest 436 502 28,000  Level Houston Center
03:15PM 30.9953 -99.1200 338° Northwest 440 506 28,000  Level Houston Center
03:16PM 31.1289 -99.1844 338° Northwest 441 507 28,000  Level Houston Center
03:17PM 31.2406 -99.2408 337° Northwest 438 504 28,000  Level Houston Center
03:18PM 31.3561 -99.2978 337° Northwest 438 504 28,000  Level Houston Center
03:19PM 31.4703 -99.3556 337° Northwest 441 507 28,000 720 Level Houston Center
03:20PM 31.5864 -99.4117 338° Northwest 444 511 29,600 1,500 Climbing Houston Center
03:21PM 31.6458 -99.4411 337° Northwest 434 499 30,400 1,320 Climbing Fort Worth Center
03:22PM 31.7556 -99.4950 337° Northwest 434 499 31,700 1,200 Climbing Fort Worth Center
03:23PM 31.8631 -99.5511 336° Northwest 429 494 32,900 1,140 Climbing Fort Worth Center
03:24PM 31.9686 -99.6028 337° Northwest 418 481 34,000 960 Climbing Fort Worth Center
03:25PM 32.0742 -99.6592 336° Northwest 418 481 34,900 840 Climbing Fort Worth Center
03:26PM 32.1797 -99.7108 337° Northwest 413 475 35,700 600 Climbing Fort Worth Center
03:27PM 32.2894 -99.7678 336° Northwest 418 481 36,200 480 Climbing Fort Worth Center
03:28PM 32.3989 -99.8222 337° Northwest 418 481 36,700 600 Climbing Fort Worth Center
03:29PM 32.5022 -99.8817 334° Northwest 418 481 37,400 600 Climbing Fort Worth Center
03:30PM 32.5969 -99.9408 332° Northwest 413 475 38,000 300 Climbing Fort Worth Center
03:31PM 32.7144 -100.0108 333° Northwest 418 481 38,000  Level Fort Worth Center
03:32PM 32.8297 -100.0908 330° Northwest 431 496 38,000  Level Fort Worth Center
03:33PM 32.9328 -100.1558 332° Northwest 426 490 38,000  Level Fort Worth Center
03:34PM 33.0356 -100.2233 331° Northwest 426 490 38,000  Level Fort Worth Center
03:35PM 33.1406 -100.2889 332° Northwest 426 490 38,000  Level Fort Worth Center
03:36PM 33.2453 -100.3592 331° Northwest 426 490 38,000  Level Fort Worth Center
03:37PM 33.3503 -100.4300 331° Northwest 426 490 38,000  Level Fort Worth Center
03:38PM 33.4550 -100.4983 331° Northwest 426 490 38,000  Level Fort Worth Center
03:39PM 33.5617 -100.5692 331° Northwest 426 490 38,000  Level Fort Worth Center
03:40PM 33.6664 -100.6381 331° Northwest 431 496 38,000  Level Fort Worth Center
03:41PM 33.7650 -100.6989 333° Northwest 431 496 38,000  Level Fort Worth Center
03:42PM 33.8797 -100.7783 330° Northwest 431 496 38,000  Level Fort Worth Center
03:43PM 33.9842 -100.8500 330° Northwest 431 496 38,000  Level Fort Worth Center
03:44PM 34.0786 -100.9089 333° Northwest 426 490 38,000  Level Fort Worth Center
03:46PM 34.3250 -101.0378 337° Northwest 433 498 38,000  Level Albuquerque Center
03:47PM 34.4361 -101.0956 337° Northwest 435 501 38,000  Level Albuquerque Center
03:48PM 34.5469 -101.1550 336° Northwest 435 501 38,000  Level Albuquerque Center
03:49PM 34.6603 -101.2136 337° Northwest 441 507 38,000  Level Albuquerque Center
03:50PM 34.7742 -101.2728 337° Northwest 445 512 38,000  Level Albuquerque Center
03:51PM 34.9111 -101.3456 336° Northwest 448 516 38,000  Level Albuquerque Center
03:52PM 35.0219 -101.4050 336° Northwest 452 520 38,000  Level Albuquerque Center
03:53PM 35.1392 -101.4672 337° Northwest 456 525 38,000  Level Albuquerque Center
03:54PM 35.2550 -101.5294 336° Northwest 455 524 38,000  Level Albuquerque Center
03:55PM 35.3706 -101.5914 336° Northwest 452 520 38,000  Level Albuquerque Center
03:57PM 35.4942 -101.6575 336° Northwest 458 527 38,000  Level Albuquerque Center
03:58PM 35.6186 -101.7253 336° Northwest 455 524 38,000  Level Albuquerque Center
03:59PM 35.7344 -101.7892 336° Northwest 458 527 38,000  Level Albuquerque Center
04:00PM 35.8506 -101.8508 337° Northwest 456 525 38,000  Level Albuquerque Center
04:01PM 35.9669 -101.9147 336° Northwest 457 526 38,000  Level Albuquerque Center
04:02PM 36.0853 -101.9792 336° Northwest 463 533 38,000  Level Albuquerque Center
04:03PM 36.2258 -102.0558 336° Northwest 461 531 38,000  Level Albuquerque Center
04:04PM 36.3425 -102.1214 336° Northwest 462 532 38,000  Level Albuquerque Center
04:05PM 36.4594 -102.1853 336° Northwest 461 531 38,000  Level Albuquerque Center
04:06PM 36.5756 -102.2497 336° Northwest 458 527 38,000 -420 Level Albuquerque Center
04:07PM 36.6908 -102.3133 336° Northwest 456 525 37,200 -900 Descending Albuquerque Center
04:08PM 36.8022 -102.3753 336° Northwest 444 511 36,200 -600 Descending Albuquerque Center
04:09PM 36.9258 -102.4453 336° Northwest 435 501 36,000 -120 Descending Albuquerque Center
04:10PM 37.0292 -102.5022 336° Northwest 430 495 36,000  Level Albuquerque Center
04:11PM 37.1533 -102.5725 336° Northwest 435 501 36,000  Level Albuquerque Center
04:12PM 37.2586 -102.6325 336° Northwest 436 502 36,000  Level Albuquerque Center
04:13PM 37.3794 -102.7017 336° Northwest 430 495 36,000  Level Albuquerque Center
04:14PM 37.4825 -102.7594 336° Northwest 426 490 36,000  Level Albuquerque Center
04:15PM 37.5950 -102.8447 329° Northwest 425 489 36,000  Level Albuquerque Center
04:16PM 37.6922 -102.9181 329° Northwest 426 490 36,000  Level Albuquerque Center
04:17PM 37.7900 -102.9914 329° Northwest 427 491 36,000  Level Albuquerque Center
04:18PM 37.9211 -103.0892 330° Northwest 429 494 36,000  Level Denver Center
04:19PM 38.0181 -103.1628 329° Northwest 426 490 36,000  Level Denver Center
04:20PM 38.1311 -103.2489 329° Northwest 425 489 36,000  Level Denver Center
04:21PM 38.2272 -103.3217 329° Northwest 423 487 36,000 -420 Level Denver Center
04:22PM 38.3294 -103.4006 329° Northwest 423 487 35,200 -1,500 Descending Denver Center
04:23PM 38.4356 -103.4811 329° Northwest 420 483 32,900 -2,280 Descending Denver Center
04:24PM 38.5406 -103.5622 329° Northwest 398 458 30,600 -2,100 Descending Denver Center
04:25PM 38.6278 -103.6294 329° Northwest 386 444 28,700 -1,860 Descending Denver Center
04:27PM 38.7308 -103.7078 329° Northwest 385 443 26,800 -1,620 Descending Denver Center
04:28PM 38.8147 -103.7747 328° Northwest 374 430 25,400 -1,560 Descending Denver Center
04:29PM 38.9106 -103.8489 329° Northwest 363 418 23,700 -1,560 Descending Denver Center
04:30PM 38.9858 -103.9094 328° Northwest 342 394 22,300 -1,440 Descending Denver Center
04:31PM 39.0611 -103.9661 330° Northwest 333 383 20,800 -1,560 Descending Denver Center
04:32PM 39.1444 -104.0303 329° Northwest 322 371 19,100 -1,560 Descending Denver Center
04:33PM 39.2131 -104.0856 328° Northwest 312 359 17,700 -1,080 Descending Denver Center
04:34PM 39.2764 -104.1692 314° West 287 330 17,000 -1,020 Descending Denver Center
04:35PM 39.3211 -104.2556 304° West 289 333 15,600 -1,500 Descending Denver Center
04:36PM 39.3467 -104.3500 289° West 280 322 13,900 -1,380 Descending Denver Center
04:37PM 39.3956 -104.4283 309° West 260 299 12,800 -1,380 Descending Denver Center
04:38PM 39.4408 -104.4853 316° Northwest 229 264 11,100 -1,560 Descending Denver Center
04:39PM 39.4856 -104.5461 314° West 233 268 9,600 -1,020 Descending Denver Center
04:40PM 39.5492 -104.5792 338° Northwest 230 265 9,000 -300 Descending Denver Center
04:41PM 39.6094 -104.6128 337° Northwest 234 269 9,000 -600 Level Denver Center
04:42PM 39.6747 -104.6436 340° North 233 268 7,800 -1,020 Descending Denver Center
04:43PM 39.7342 -104.6436 360° North 217 250 7,000 -720 Descending Denver Center
04:44PM 39.7814 -104.6425 North 178 205 6,400 -720 Descending Denver Center
04:45PM 39.8258 -104.6417 North 153 176 5,600 -780 Descending Denver Center
04:47PM 39.8500 -104.6667 North  Level FlightAware Approximate
04:54PM 39.8617 -104.6732 North  Level Estimated
04:55PM 39.8617 -104.6732 North  Level Estimated
04:56PM 39.8617 -104.6732 North  Level Estimated